sensor_id;sensor_type;location;lat;lon;timestamp;P1;durP1;ratioP1;P2;durP2;ratioP2
34064;SDS011;20339;49.754;20.158;2022-12-29T00:02:05;6.70;;;3.10;;
34064;SDS011;20339;49.754;20.158;2022-12-29T00:04:36;6.70;;;3.00;;
34064;SDS011;20339;49.754;20.158;2022-12-29T00:07:07;4.70;;;2.90;;
34064;SDS011;20339;49.754;20.158;2022-12-29T00:09:39;5.30;;;3.20;;
34064;SDS011;20339;49.754;20.158;2022-12-29T00:12:10;6.10;;;3.40;;
34064;SDS011;20339;49.754;20.158;2022-12-29T00:14:41;5.10;;;2.70;;
34064;SDS011;20339;49.754;20.158;2022-12-29T00:17:29;6.40;;;3.20;;
34064;SDS011;20339;49.754;20.158;2022-12-29T00:20:01;4.80;;;2.70;;
34064;SDS011;20339;49.754;20.158;2022-12-29T00:22:52;5.40;;;2.50;;
34064;SDS011;20339;49.754;20.158;2022-12-29T00:25:40;6.10;;;3.10;;
34064;SDS011;20339;49.754;20.158;2022-12-29T00:28:29;8.20;;;3.70;;
34064;SDS011;20339;49.754;20.158;2022-12-29T00:31:18;8.00;;;3.90;;
34064;SDS011;20339;49.754;20.158;2022-12-29T00:34:08;6.30;;;3.90;;
34064;SDS011;20339;49.754;20.158;2022-12-29T00:36:58;5.30;;;3.20;;
34064;SDS011;20339;49.754;20.158;2022-12-29T00:39:32;6.20;;;3.40;;
34064;SDS011;20339;49.754;20.158;2022-12-29T00:42:21;5.60;;;3.30;;
34064;SDS011;20339;49.754;20.158;2022-12-29T00:45:12;6.20;;;3.10;;
34064;SDS011;20339;49.754;20.158;2022-12-29T00:47:43;8.70;;;4.20;;
34064;SDS011;20339;49.754;20.158;2022-12-29T00:50:14;7.40;;;3.30;;
34064;SDS011;20339;49.754;20.158;2022-12-29T00:52:47;9.20;;;3.60;;
34064;SDS011;20339;49.754;20.158;2022-12-29T00:55:18;5.90;;;3.50;;
34064;SDS011;20339;49.754;20.158;2022-12-29T00:57:49;8.60;;;3.60;;
34064;SDS011;20339;49.754;20.158;2022-12-29T01:00:20;7.30;;;3.30;;
34064;SDS011;20339;49.754;20.158;2022-12-29T01:02:51;8.20;;;3.60;;
34064;SDS011;20339;49.754;20.158;2022-12-29T01:05:22;8.50;;;3.90;;
34064;SDS011;20339;49.754;20.158;2022-12-29T01:07:53;7.80;;;3.70;;
34064;SDS011;20339;49.754;20.158;2022-12-29T01:10:24;7.60;;;4.00;;
34064;SDS011;20339;49.754;20.158;2022-12-29T01:12:56;7.00;;;4.50;;
34064;SDS011;20339;49.754;20.158;2022-12-29T01:15:28;8.70;;;4.60;;
34064;SDS011;20339;49.754;20.158;2022-12-29T01:18:00;10.20;;;4.50;;
34064;SDS011;20339;49.754;20.158;2022-12-29T01:20:31;7.80;;;3.60;;
34064;SDS011;20339;49.754;20.158;2022-12-29T01:23:03;9.10;;;5.30;;
34064;SDS011;20339;49.754;20.158;2022-12-29T01:25:37;10.30;;;4.80;;
34064;SDS011;20339;49.754;20.158;2022-12-29T01:28:07;9.00;;;4.20;;
34064;SDS011;20339;49.754;20.158;2022-12-29T01:30:42;6.70;;;4.50;;
34064;SDS011;20339;49.754;20.158;2022-12-29T01:33:13;8.50;;;4.50;;
34064;SDS011;20339;49.754;20.158;2022-12-29T01:35:44;6.30;;;3.80;;
34064;SDS011;20339;49.754;20.158;2022-12-29T01:38:15;6.80;;;3.70;;
34064;SDS011;20339;49.754;20.158;2022-12-29T01:40:46;7.10;;;4.30;;
34064;SDS011;20339;49.754;20.158;2022-12-29T01:43:17;6.60;;;3.70;;
34064;SDS011;20339;49.754;20.158;2022-12-29T01:45:50;5.60;;;3.30;;
34064;SDS011;20339;49.754;20.158;2022-12-29T01:48:22;6.30;;;3.40;;
34064;SDS011;20339;49.754;20.158;2022-12-29T01:50:54;7.80;;;3.90;;
34064;SDS011;20339;49.754;20.158;2022-12-29T01:53:26;6.80;;;3.40;;
34064;SDS011;20339;49.754;20.158;2022-12-29T01:56:02;11.70;;;3.60;;
34064;SDS011;20339;49.754;20.158;2022-12-29T01:58:39;7.40;;;3.90;;
34064;SDS011;20339;49.754;20.158;2022-12-29T02:01:16;8.50;;;4.60;;
34064;SDS011;20339;49.754;20.158;2022-12-29T02:03:49;6.80;;;3.90;;
34064;SDS011;20339;49.754;20.158;2022-12-29T02:06:22;6.30;;;3.60;;
34064;SDS011;20339;49.754;20.158;2022-12-29T02:08:57;7.80;;;2.90;;
34064;SDS011;20339;49.754;20.158;2022-12-29T02:11:32;8.10;;;3.40;;
34064;SDS011;20339;49.754;20.158;2022-12-29T02:14:07;3.90;;;1.60;;
34064;SDS011;20339;49.754;20.158;2022-12-29T02:16:44;5.20;;;2.50;;
34064;SDS011;20339;49.754;20.158;2022-12-29T02:22:38;4.50;;;2.00;;
34064;SDS011;20339;49.754;20.158;2022-12-29T02:25:29;5.20;;;2.60;;
34064;SDS011;20339;49.754;20.158;2022-12-29T02:28:44;3.10;;;1.80;;
34064;SDS011;20339;49.754;20.158;2022-12-29T02:31:27;4.60;;;2.50;;
34064;SDS011;20339;49.754;20.158;2022-12-29T02:34:10;4.00;;;2.50;;
34064;SDS011;20339;49.754;20.158;2022-12-29T02:36:54;5.10;;;2.60;;
34064;SDS011;20339;49.754;20.158;2022-12-29T02:42:08;3.20;;;2.10;;
34064;SDS011;20339;49.754;20.158;2022-12-29T02:44:46;4.50;;;2.60;;
34064;SDS011;20339;49.754;20.158;2022-12-29T02:47:26;5.10;;;3.00;;
34064;SDS011;20339;49.754;20.158;2022-12-29T02:50:01;6.80;;;3.10;;
34064;SDS011;20339;49.754;20.158;2022-12-29T02:52:38;5.10;;;2.90;;
34064;SDS011;20339;49.754;20.158;2022-12-29T02:55:17;4.90;;;2.50;;
34064;SDS011;20339;49.754;20.158;2022-12-29T02:57:48;1.50;;;1.30;;
34064;SDS011;20339;49.754;20.158;2022-12-29T03:00:35;4.60;;;2.30;;
34064;SDS011;20339;49.754;20.158;2022-12-29T03:03:20;3.80;;;2.00;;
34064;SDS011;20339;49.754;20.158;2022-12-29T03:06:05;3.90;;;2.00;;
34064;SDS011;20339;49.754;20.158;2022-12-29T03:08:53;4.50;;;2.10;;
34064;SDS011;20339;49.754;20.158;2022-12-29T03:11:30;4.60;;;2.20;;
34064;SDS011;20339;49.754;20.158;2022-12-29T03:14:29;4.30;;;2.00;;
34064;SDS011;20339;49.754;20.158;2022-12-29T03:17:26;5.00;;;2.90;;
34064;SDS011;20339;49.754;20.158;2022-12-29T03:20:06;6.30;;;3.60;;
34064;SDS011;20339;49.754;20.158;2022-12-29T03:22:43;6.10;;;3.10;;
34064;SDS011;20339;49.754;20.158;2022-12-29T03:25:17;3.30;;;1.80;;
34064;SDS011;20339;49.754;20.158;2022-12-29T03:27:53;4.80;;;2.60;;
34064;SDS011;20339;49.754;20.158;2022-12-29T03:30:29;5.00;;;2.30;;
34064;SDS011;20339;49.754;20.158;2022-12-29T03:33:04;4.40;;;2.20;;
34064;SDS011;20339;49.754;20.158;2022-12-29T03:35:37;4.70;;;2.00;;
34064;SDS011;20339;49.754;20.158;2022-12-29T03:38:11;3.80;;;2.10;;
34064;SDS011;20339;49.754;20.158;2022-12-29T03:40:46;4.70;;;2.80;;
34064;SDS011;20339;49.754;20.158;2022-12-29T03:43:25;2.40;;;1.90;;
34064;SDS011;20339;49.754;20.158;2022-12-29T03:45:57;4.80;;;2.30;;
34064;SDS011;20339;49.754;20.158;2022-12-29T03:48:28;3.30;;;2.20;;
34064;SDS011;20339;49.754;20.158;2022-12-29T03:51:00;6.10;;;3.20;;
34064;SDS011;20339;49.754;20.158;2022-12-29T03:53:36;6.10;;;3.10;;
34064;SDS011;20339;49.754;20.158;2022-12-29T03:56:08;5.50;;;2.60;;
34064;SDS011;20339;49.754;20.158;2022-12-29T03:58:39;4.80;;;2.50;;
34064;SDS011;20339;49.754;20.158;2022-12-29T04:01:10;5.60;;;2.90;;
34064;SDS011;20339;49.754;20.158;2022-12-29T04:03:41;5.90;;;3.00;;
34064;SDS011;20339;49.754;20.158;2022-12-29T04:06:13;5.50;;;2.60;;
34064;SDS011;20339;49.754;20.158;2022-12-29T04:08:44;4.60;;;2.60;;
34064;SDS011;20339;49.754;20.158;2022-12-29T04:11:15;4.90;;;2.60;;
34064;SDS011;20339;49.754;20.158;2022-12-29T04:13:46;4.20;;;2.80;;
34064;SDS011;20339;49.754;20.158;2022-12-29T04:16:17;6.00;;;2.20;;
34064;SDS011;20339;49.754;20.158;2022-12-29T04:18:48;3.80;;;2.20;;
34064;SDS011;20339;49.754;20.158;2022-12-29T04:21:19;4.10;;;2.50;;
34064;SDS011;20339;49.754;20.158;2022-12-29T04:23:50;4.80;;;2.40;;
34064;SDS011;20339;49.754;20.158;2022-12-29T04:26:21;4.80;;;1.80;;
34064;SDS011;20339;49.754;20.158;2022-12-29T04:28:52;6.30;;;2.70;;
34064;SDS011;20339;49.754;20.158;2022-12-29T04:31:23;3.30;;;1.90;;
34064;SDS011;20339;49.754;20.158;2022-12-29T04:33:55;4.40;;;1.90;;
34064;SDS011;20339;49.754;20.158;2022-12-29T04:36:27;5.30;;;2.70;;
34064;SDS011;20339;49.754;20.158;2022-12-29T04:38:59;4.60;;;2.20;;
34064;SDS011;20339;49.754;20.158;2022-12-29T04:41:32;5.50;;;2.60;;
34064;SDS011;20339;49.754;20.158;2022-12-29T04:44:04;14.50;;;5.00;;
34064;SDS011;20339;49.754;20.158;2022-12-29T04:46:35;5.90;;;2.50;;
34064;SDS011;20339;49.754;20.158;2022-12-29T04:49:08;6.20;;;2.70;;
34064;SDS011;20339;49.754;20.158;2022-12-29T04:51:39;5.50;;;2.80;;
34064;SDS011;20339;49.754;20.158;2022-12-29T04:54:10;6.10;;;2.40;;
34064;SDS011;20339;49.754;20.158;2022-12-29T04:56:42;3.10;;;1.60;;
34064;SDS011;20339;49.754;20.158;2022-12-29T04:59:13;3.90;;;1.90;;
34064;SDS011;20339;49.754;20.158;2022-12-29T05:01:44;4.60;;;2.80;;
34064;SDS011;20339;49.754;20.158;2022-12-29T05:04:15;4.10;;;2.50;;
34064;SDS011;20339;49.754;20.158;2022-12-29T05:06:46;5.10;;;2.50;;
34064;SDS011;20339;49.754;20.158;2022-12-29T05:09:18;6.40;;;2.90;;
34064;SDS011;20339;49.754;20.158;2022-12-29T05:11:49;4.80;;;2.40;;
34064;SDS011;20339;49.754;20.158;2022-12-29T05:14:20;3.90;;;2.60;;
34064;SDS011;20339;49.754;20.158;2022-12-29T05:16:52;4.50;;;2.80;;
34064;SDS011;20339;49.754;20.158;2022-12-29T05:19:23;3.30;;;1.90;;
34064;SDS011;20339;49.754;20.158;2022-12-29T05:21:54;4.90;;;2.90;;
34064;SDS011;20339;49.754;20.158;2022-12-29T05:24:25;6.70;;;2.70;;
34064;SDS011;20339;49.754;20.158;2022-12-29T05:26:56;6.60;;;3.10;;
34064;SDS011;20339;49.754;20.158;2022-12-29T05:29:27;6.10;;;2.90;;
34064;SDS011;20339;49.754;20.158;2022-12-29T05:31:58;4.10;;;2.10;;
34064;SDS011;20339;49.754;20.158;2022-12-29T05:34:30;5.80;;;2.40;;
34064;SDS011;20339;49.754;20.158;2022-12-29T05:37:01;4.80;;;2.70;;
34064;SDS011;20339;49.754;20.158;2022-12-29T05:39:32;4.80;;;2.50;;
34064;SDS011;20339;49.754;20.158;2022-12-29T05:42:03;4.40;;;2.50;;
34064;SDS011;20339;49.754;20.158;2022-12-29T05:44:34;3.40;;;2.20;;
34064;SDS011;20339;49.754;20.158;2022-12-29T05:47:05;5.40;;;2.80;;
34064;SDS011;20339;49.754;20.158;2022-12-29T05:49:38;4.50;;;2.40;;
34064;SDS011;20339;49.754;20.158;2022-12-29T05:52:10;3.80;;;2.40;;
34064;SDS011;20339;49.754;20.158;2022-12-29T05:54:41;5.20;;;2.90;;
34064;SDS011;20339;49.754;20.158;2022-12-29T05:57:12;6.60;;;2.80;;
34064;SDS011;20339;49.754;20.158;2022-12-29T05:59:43;3.70;;;2.00;;
34064;SDS011;20339;49.754;20.158;2022-12-29T06:02:14;5.20;;;2.00;;
34064;SDS011;20339;49.754;20.158;2022-12-29T06:04:45;5.30;;;2.60;;
34064;SDS011;20339;49.754;20.158;2022-12-29T06:07:16;4.90;;;2.00;;
34064;SDS011;20339;49.754;20.158;2022-12-29T06:09:47;3.90;;;1.80;;
34064;SDS011;20339;49.754;20.158;2022-12-29T06:12:18;4.40;;;2.50;;
34064;SDS011;20339;49.754;20.158;2022-12-29T06:14:49;2.40;;;1.70;;
34064;SDS011;20339;49.754;20.158;2022-12-29T06:17:21;4.20;;;2.30;;
34064;SDS011;20339;49.754;20.158;2022-12-29T06:19:54;2.80;;;1.90;;
34064;SDS011;20339;49.754;20.158;2022-12-29T06:22:25;5.20;;;2.70;;
34064;SDS011;20339;49.754;20.158;2022-12-29T06:24:56;3.10;;;2.10;;
34064;SDS011;20339;49.754;20.158;2022-12-29T06:27:28;4.90;;;2.30;;
34064;SDS011;20339;49.754;20.158;2022-12-29T06:29:59;3.90;;;2.30;;
34064;SDS011;20339;49.754;20.158;2022-12-29T06:32:31;4.70;;;2.50;;
34064;SDS011;20339;49.754;20.158;2022-12-29T06:35:02;3.20;;;2.60;;
34064;SDS011;20339;49.754;20.158;2022-12-29T06:37:34;5.10;;;2.20;;
34064;SDS011;20339;49.754;20.158;2022-12-29T06:40:06;5.10;;;2.20;;
34064;SDS011;20339;49.754;20.158;2022-12-29T06:42:39;7.00;;;2.10;;
34064;SDS011;20339;49.754;20.158;2022-12-29T06:45:11;2.60;;;1.70;;
34064;SDS011;20339;49.754;20.158;2022-12-29T06:47:42;3.20;;;2.30;;
34064;SDS011;20339;49.754;20.158;2022-12-29T06:50:16;6.40;;;3.10;;
34064;SDS011;20339;49.754;20.158;2022-12-29T06:52:47;4.00;;;2.40;;
34064;SDS011;20339;49.754;20.158;2022-12-29T06:55:19;3.40;;;2.10;;
34064;SDS011;20339;49.754;20.158;2022-12-29T06:57:50;3.70;;;2.10;;
34064;SDS011;20339;49.754;20.158;2022-12-29T07:00:25;4.00;;;2.40;;
34064;SDS011;20339;49.754;20.158;2022-12-29T07:02:57;4.90;;;2.30;;
34064;SDS011;20339;49.754;20.158;2022-12-29T07:05:28;4.00;;;2.00;;
34064;SDS011;20339;49.754;20.158;2022-12-29T07:08:00;3.20;;;1.70;;
34064;SDS011;20339;49.754;20.158;2022-12-29T07:10:32;4.50;;;2.40;;
34064;SDS011;20339;49.754;20.158;2022-12-29T07:13:04;4.80;;;2.10;;
34064;SDS011;20339;49.754;20.158;2022-12-29T07:15:37;4.50;;;2.10;;
34064;SDS011;20339;49.754;20.158;2022-12-29T07:18:08;4.90;;;2.40;;
34064;SDS011;20339;49.754;20.158;2022-12-29T07:20:39;4.20;;;2.10;;
34064;SDS011;20339;49.754;20.158;2022-12-29T07:23:11;4.00;;;2.80;;
34064;SDS011;20339;49.754;20.158;2022-12-29T07:25:42;3.90;;;2.40;;
34064;SDS011;20339;49.754;20.158;2022-12-29T07:28:13;4.10;;;2.70;;
34064;SDS011;20339;49.754;20.158;2022-12-29T07:30:45;5.60;;;2.60;;
34064;SDS011;20339;49.754;20.158;2022-12-29T07:33:19;5.70;;;3.40;;
34064;SDS011;20339;49.754;20.158;2022-12-29T07:35:53;4.60;;;2.90;;
34064;SDS011;20339;49.754;20.158;2022-12-29T07:38:25;4.80;;;3.10;;
34064;SDS011;20339;49.754;20.158;2022-12-29T07:41:00;3.40;;;2.20;;
34064;SDS011;20339;49.754;20.158;2022-12-29T07:43:34;4.60;;;2.50;;
34064;SDS011;20339;49.754;20.158;2022-12-29T07:46:05;4.90;;;2.80;;
34064;SDS011;20339;49.754;20.158;2022-12-29T07:48:40;6.40;;;2.50;;
34064;SDS011;20339;49.754;20.158;2022-12-29T07:51:11;6.30;;;3.60;;
34064;SDS011;20339;49.754;20.158;2022-12-29T07:53:42;7.60;;;4.00;;
34064;SDS011;20339;49.754;20.158;2022-12-29T07:56:14;5.30;;;3.20;;
34064;SDS011;20339;49.754;20.158;2022-12-29T07:58:45;6.60;;;3.70;;
34064;SDS011;20339;49.754;20.158;2022-12-29T08:01:17;5.90;;;3.60;;
34064;SDS011;20339;49.754;20.158;2022-12-29T08:03:49;9.30;;;5.50;;
34064;SDS011;20339;49.754;20.158;2022-12-29T08:06:23;15.20;;;9.10;;
34064;SDS011;20339;49.754;20.158;2022-12-29T08:08:54;15.90;;;8.80;;
34064;SDS011;20339;49.754;20.158;2022-12-29T08:11:28;8.00;;;4.50;;
34064;SDS011;20339;49.754;20.158;2022-12-29T08:14:06;20.80;;;13.80;;
34064;SDS011;20339;49.754;20.158;2022-12-29T08:16:38;14.90;;;9.50;;
34064;SDS011;20339;49.754;20.158;2022-12-29T08:19:11;10.20;;;6.40;;
34064;SDS011;20339;49.754;20.158;2022-12-29T08:21:42;11.70;;;7.80;;
34064;SDS011;20339;49.754;20.158;2022-12-29T08:24:14;6.10;;;3.40;;
34064;SDS011;20339;49.754;20.158;2022-12-29T08:26:46;15.70;;;10.00;;
34064;SDS011;20339;49.754;20.158;2022-12-29T08:29:18;7.70;;;4.80;;
34064;SDS011;20339;49.754;20.158;2022-12-29T08:31:49;13.30;;;9.10;;
34064;SDS011;20339;49.754;20.158;2022-12-29T08:34:21;5.60;;;3.50;;
34064;SDS011;20339;49.754;20.158;2022-12-29T08:36:53;14.30;;;9.20;;
34064;SDS011;20339;49.754;20.158;2022-12-29T08:39:25;7.90;;;4.70;;
34064;SDS011;20339;49.754;20.158;2022-12-29T08:41:56;9.30;;;5.00;;
34064;SDS011;20339;49.754;20.158;2022-12-29T08:44:28;9.70;;;5.80;;
34064;SDS011;20339;49.754;20.158;2022-12-29T08:46:59;7.20;;;4.80;;
34064;SDS011;20339;49.754;20.158;2022-12-29T08:49:31;8.60;;;4.60;;
34064;SDS011;20339;49.754;20.158;2022-12-29T08:52:04;7.80;;;5.30;;
34064;SDS011;20339;49.754;20.158;2022-12-29T08:54:36;8.00;;;4.50;;
34064;SDS011;20339;49.754;20.158;2022-12-29T08:57:08;10.10;;;5.70;;
34064;SDS011;20339;49.754;20.158;2022-12-29T08:59:40;8.70;;;4.90;;
34064;SDS011;20339;49.754;20.158;2022-12-29T09:02:12;9.60;;;5.30;;
34064;SDS011;20339;49.754;20.158;2022-12-29T09:04:43;10.40;;;5.60;;
34064;SDS011;20339;49.754;20.158;2022-12-29T09:07:17;9.20;;;6.30;;
34064;SDS011;20339;49.754;20.158;2022-12-29T09:09:48;9.50;;;6.10;;
34064;SDS011;20339;49.754;20.158;2022-12-29T09:12:20;11.60;;;5.60;;
34064;SDS011;20339;49.754;20.158;2022-12-29T09:14:51;11.80;;;7.20;;
34064;SDS011;20339;49.754;20.158;2022-12-29T09:17:23;14.50;;;9.30;;
34064;SDS011;20339;49.754;20.158;2022-12-29T09:20:16;12.10;;;7.70;;
34064;SDS011;20339;49.754;20.158;2022-12-29T09:22:49;13.20;;;9.00;;
34064;SDS011;20339;49.754;20.158;2022-12-29T09:25:21;13.00;;;8.10;;
34064;SDS011;20339;49.754;20.158;2022-12-29T09:27:53;13.00;;;7.20;;
34064;SDS011;20339;49.754;20.158;2022-12-29T09:30:24;15.30;;;9.60;;
34064;SDS011;20339;49.754;20.158;2022-12-29T09:32:55;9.70;;;6.20;;
34064;SDS011;20339;49.754;20.158;2022-12-29T09:35:26;19.90;;;12.70;;
34064;SDS011;20339;49.754;20.158;2022-12-29T09:37:58;12.90;;;8.10;;
34064;SDS011;20339;49.754;20.158;2022-12-29T09:40:30;7.80;;;4.80;;
34064;SDS011;20339;49.754;20.158;2022-12-29T09:43:09;6.90;;;4.50;;
34064;SDS011;20339;49.754;20.158;2022-12-29T09:46:03;7.70;;;4.20;;
34064;SDS011;20339;49.754;20.158;2022-12-29T09:48:45;7.70;;;4.60;;
34064;SDS011;20339;49.754;20.158;2022-12-29T09:51:21;8.10;;;5.20;;
34064;SDS011;20339;49.754;20.158;2022-12-29T09:53:55;7.80;;;4.60;;
34064;SDS011;20339;49.754;20.158;2022-12-29T09:56:31;5.10;;;3.20;;
34064;SDS011;20339;49.754;20.158;2022-12-29T09:59:02;7.30;;;4.00;;
34064;SDS011;20339;49.754;20.158;2022-12-29T10:01:42;6.80;;;4.50;;
34064;SDS011;20339;49.754;20.158;2022-12-29T10:04:19;10.30;;;5.50;;
34064;SDS011;20339;49.754;20.158;2022-12-29T10:06:51;9.40;;;5.90;;
34064;SDS011;20339;49.754;20.158;2022-12-29T10:09:30;11.60;;;6.50;;
34064;SDS011;20339;49.754;20.158;2022-12-29T10:12:15;11.40;;;6.90;;
34064;SDS011;20339;49.754;20.158;2022-12-29T10:14:58;11.40;;;5.90;;
34064;SDS011;20339;49.754;20.158;2022-12-29T10:17:43;8.80;;;4.80;;
34064;SDS011;20339;49.754;20.158;2022-12-29T10:20:23;6.70;;;4.60;;
34064;SDS011;20339;49.754;20.158;2022-12-29T10:23:04;7.10;;;4.50;;
34064;SDS011;20339;49.754;20.158;2022-12-29T10:25:49;8.30;;;4.40;;
34064;SDS011;20339;49.754;20.158;2022-12-29T10:28:31;12.50;;;7.10;;
34064;SDS011;20339;49.754;20.158;2022-12-29T10:31:10;9.00;;;5.50;;
34064;SDS011;20339;49.754;20.158;2022-12-29T10:36:28;8.20;;;4.40;;
34064;SDS011;20339;49.754;20.158;2022-12-29T10:39:06;10.20;;;6.60;;
34064;SDS011;20339;49.754;20.158;2022-12-29T10:41:46;9.10;;;5.00;;
34064;SDS011;20339;49.754;20.158;2022-12-29T10:44:21;7.80;;;4.90;;
34064;SDS011;20339;49.754;20.158;2022-12-29T10:46:57;10.30;;;4.90;;
34064;SDS011;20339;49.754;20.158;2022-12-29T10:49:34;7.20;;;3.70;;
34064;SDS011;20339;49.754;20.158;2022-12-29T10:52:10;4.70;;;3.10;;
34064;SDS011;20339;49.754;20.158;2022-12-29T10:54:45;5.40;;;3.20;;
34064;SDS011;20339;49.754;20.158;2022-12-29T10:57:26;4.50;;;2.90;;
34064;SDS011;20339;49.754;20.158;2022-12-29T11:00:04;6.40;;;3.50;;
34064;SDS011;20339;49.754;20.158;2022-12-29T11:02:57;6.60;;;3.30;;
34064;SDS011;20339;49.754;20.158;2022-12-29T11:05:42;5.20;;;2.70;;
34064;SDS011;20339;49.754;20.158;2022-12-29T11:08:20;6.10;;;3.50;;
34064;SDS011;20339;49.754;20.158;2022-12-29T11:11:01;4.00;;;2.50;;
34064;SDS011;20339;49.754;20.158;2022-12-29T11:13:34;7.70;;;2.50;;
34064;SDS011;20339;49.754;20.158;2022-12-29T11:16:16;5.10;;;3.10;;
34064;SDS011;20339;49.754;20.158;2022-12-29T11:19:00;6.60;;;3.40;;
34064;SDS011;20339;49.754;20.158;2022-12-29T11:21:33;3.90;;;2.00;;
34064;SDS011;20339;49.754;20.158;2022-12-29T11:24:19;6.00;;;3.30;;
34064;SDS011;20339;49.754;20.158;2022-12-29T11:26:53;7.90;;;4.30;;
34064;SDS011;20339;49.754;20.158;2022-12-29T11:29:38;7.20;;;4.90;;
34064;SDS011;20339;49.754;20.158;2022-12-29T11:32:12;7.70;;;4.60;;
34064;SDS011;20339;49.754;20.158;2022-12-29T11:34:48;6.90;;;4.30;;
34064;SDS011;20339;49.754;20.158;2022-12-29T11:37:25;5.20;;;2.90;;
34064;SDS011;20339;49.754;20.158;2022-12-29T11:40:00;5.20;;;2.90;;
34064;SDS011;20339;49.754;20.158;2022-12-29T11:42:36;7.00;;;3.70;;
34064;SDS011;20339;49.754;20.158;2022-12-29T11:45:15;7.70;;;4.50;;
34064;SDS011;20339;49.754;20.158;2022-12-29T11:47:56;9.90;;;5.90;;
34064;SDS011;20339;49.754;20.158;2022-12-29T11:50:31;14.50;;;8.60;;
34064;SDS011;20339;49.754;20.158;2022-12-29T11:53:07;22.80;;;13.50;;
34064;SDS011;20339;49.754;20.158;2022-12-29T11:55:54;22.70;;;16.10;;
34064;SDS011;20339;49.754;20.158;2022-12-29T11:58:30;10.10;;;5.50;;
34064;SDS011;20339;49.754;20.158;2022-12-29T12:01:02;9.90;;;5.40;;
34064;SDS011;20339;49.754;20.158;2022-12-29T12:03:40;8.20;;;5.50;;
34064;SDS011;20339;49.754;20.158;2022-12-29T12:06:18;9.00;;;6.30;;
34064;SDS011;20339;49.754;20.158;2022-12-29T12:08:53;7.80;;;4.90;;
34064;SDS011;20339;49.754;20.158;2022-12-29T12:11:31;9.80;;;5.90;;
34064;SDS011;20339;49.754;20.158;2022-12-29T12:14:07;8.90;;;5.40;;
34064;SDS011;20339;49.754;20.158;2022-12-29T12:16:48;8.70;;;5.70;;
34064;SDS011;20339;49.754;20.158;2022-12-29T12:19:26;9.80;;;5.10;;
34064;SDS011;20339;49.754;20.158;2022-12-29T12:22:10;9.50;;;5.70;;
34064;SDS011;20339;49.754;20.158;2022-12-29T12:24:46;11.00;;;6.70;;
34064;SDS011;20339;49.754;20.158;2022-12-29T12:27:26;16.00;;;10.10;;
34064;SDS011;20339;49.754;20.158;2022-12-29T12:30:03;9.70;;;5.20;;
34064;SDS011;20339;49.754;20.158;2022-12-29T12:32:41;9.70;;;5.70;;
34064;SDS011;20339;49.754;20.158;2022-12-29T12:35:23;10.50;;;6.20;;
34064;SDS011;20339;49.754;20.158;2022-12-29T12:38:08;10.40;;;3.90;;
34064;SDS011;20339;49.754;20.158;2022-12-29T12:41:03;9.00;;;4.60;;
34064;SDS011;20339;49.754;20.158;2022-12-29T12:43:43;9.60;;;5.70;;
34064;SDS011;20339;49.754;20.158;2022-12-29T12:46:24;8.80;;;5.00;;
34064;SDS011;20339;49.754;20.158;2022-12-29T12:49:20;11.30;;;6.10;;
34064;SDS011;20339;49.754;20.158;2022-12-29T12:52:11;11.40;;;7.70;;
34064;SDS011;20339;49.754;20.158;2022-12-29T12:55:01;9.90;;;4.80;;
34064;SDS011;20339;49.754;20.158;2022-12-29T12:57:55;10.30;;;5.20;;
34064;SDS011;20339;49.754;20.158;2022-12-29T13:00:34;10.90;;;5.90;;
34064;SDS011;20339;49.754;20.158;2022-12-29T13:03:16;12.20;;;5.10;;
34064;SDS011;20339;49.754;20.158;2022-12-29T13:06:01;5.20;;;3.30;;
34064;SDS011;20339;49.754;20.158;2022-12-29T13:08:47;7.90;;;5.00;;
34064;SDS011;20339;49.754;20.158;2022-12-29T13:11:32;9.70;;;4.80;;
34064;SDS011;20339;49.754;20.158;2022-12-29T13:14:18;6.90;;;4.10;;
34064;SDS011;20339;49.754;20.158;2022-12-29T13:16:59;9.00;;;4.90;;
34064;SDS011;20339;49.754;20.158;2022-12-29T13:19:39;9.50;;;5.00;;
34064;SDS011;20339;49.754;20.158;2022-12-29T13:22:18;7.70;;;4.30;;
34064;SDS011;20339;49.754;20.158;2022-12-29T13:24:55;5.10;;;3.00;;
34064;SDS011;20339;49.754;20.158;2022-12-29T13:27:39;7.20;;;4.50;;
34064;SDS011;20339;49.754;20.158;2022-12-29T13:30:17;8.00;;;4.20;;
34064;SDS011;20339;49.754;20.158;2022-12-29T13:32:58;8.90;;;4.60;;
34064;SDS011;20339;49.754;20.158;2022-12-29T13:35:55;9.00;;;5.10;;
34064;SDS011;20339;49.754;20.158;2022-12-29T13:38:36;8.70;;;5.40;;
34064;SDS011;20339;49.754;20.158;2022-12-29T13:41:12;9.70;;;5.10;;
34064;SDS011;20339;49.754;20.158;2022-12-29T13:43:48;10.00;;;6.30;;
34064;SDS011;20339;49.754;20.158;2022-12-29T13:46:21;6.90;;;4.20;;
34064;SDS011;20339;49.754;20.158;2022-12-29T13:48:58;7.70;;;4.80;;
34064;SDS011;20339;49.754;20.158;2022-12-29T13:51:34;7.50;;;4.60;;
34064;SDS011;20339;49.754;20.158;2022-12-29T13:54:16;9.30;;;6.00;;
34064;SDS011;20339;49.754;20.158;2022-12-29T13:57:03;6.80;;;4.50;;
34064;SDS011;20339;49.754;20.158;2022-12-29T13:59:42;6.30;;;3.00;;
34064;SDS011;20339;49.754;20.158;2022-12-29T14:02:21;8.60;;;5.10;;
34064;SDS011;20339;49.754;20.158;2022-12-29T14:05:27;9.70;;;5.80;;
34064;SDS011;20339;49.754;20.158;2022-12-29T14:08:01;9.00;;;5.40;;
34064;SDS011;20339;49.754;20.158;2022-12-29T14:10:35;10.10;;;5.50;;
34064;SDS011;20339;49.754;20.158;2022-12-29T14:13:16;8.30;;;4.90;;
34064;SDS011;20339;49.754;20.158;2022-12-29T14:15:52;8.30;;;5.30;;
34064;SDS011;20339;49.754;20.158;2022-12-29T14:18:26;10.90;;;6.20;;
34064;SDS011;20339;49.754;20.158;2022-12-29T14:21:04;9.00;;;5.70;;
34064;SDS011;20339;49.754;20.158;2022-12-29T14:23:49;9.40;;;5.80;;
34064;SDS011;20339;49.754;20.158;2022-12-29T14:26:37;11.40;;;7.60;;
34064;SDS011;20339;49.754;20.158;2022-12-29T14:29:33;11.70;;;7.70;;
34064;SDS011;20339;49.754;20.158;2022-12-29T14:38:23;11.10;;;6.00;;
34064;SDS011;20339;49.754;20.158;2022-12-29T14:41:23;10.50;;;6.60;;
34064;SDS011;20339;49.754;20.158;2022-12-29T14:44:02;11.50;;;6.40;;
34064;SDS011;20339;49.754;20.158;2022-12-29T14:46:47;12.70;;;6.10;;
34064;SDS011;20339;49.754;20.158;2022-12-29T14:49:26;10.40;;;6.50;;
34064;SDS011;20339;49.754;20.158;2022-12-29T14:52:06;11.30;;;6.40;;
34064;SDS011;20339;49.754;20.158;2022-12-29T14:54:45;12.80;;;7.60;;
34064;SDS011;20339;49.754;20.158;2022-12-29T14:57:29;10.60;;;6.20;;
34064;SDS011;20339;49.754;20.158;2022-12-29T15:00:12;12.20;;;7.50;;
34064;SDS011;20339;49.754;20.158;2022-12-29T15:02:48;10.90;;;6.50;;
34064;SDS011;20339;49.754;20.158;2022-12-29T15:05:27;11.90;;;7.30;;
34064;SDS011;20339;49.754;20.158;2022-12-29T15:08:04;12.80;;;7.30;;
34064;SDS011;20339;49.754;20.158;2022-12-29T15:10:39;14.90;;;9.40;;
34064;SDS011;20339;49.754;20.158;2022-12-29T15:13:17;13.20;;;8.10;;
34064;SDS011;20339;49.754;20.158;2022-12-29T15:15:51;13.90;;;9.30;;
34064;SDS011;20339;49.754;20.158;2022-12-29T15:18:23;5.80;;;3.10;;
34064;SDS011;20339;49.754;20.158;2022-12-29T15:20:58;7.00;;;3.30;;
34064;SDS011;20339;49.754;20.158;2022-12-29T15:23:33;5.60;;;2.90;;
34064;SDS011;20339;49.754;20.158;2022-12-29T15:26:06;6.80;;;4.00;;
34064;SDS011;20339;49.754;20.158;2022-12-29T15:28:40;4.90;;;2.50;;
34064;SDS011;20339;49.754;20.158;2022-12-29T15:31:16;6.10;;;3.30;;
34064;SDS011;20339;49.754;20.158;2022-12-29T15:33:50;7.90;;;3.50;;
34064;SDS011;20339;49.754;20.158;2022-12-29T15:36:23;4.90;;;2.90;;
34064;SDS011;20339;49.754;20.158;2022-12-29T15:39:18;5.60;;;2.70;;